createdAt,value
2023-01-02T00:00:54.650Z,94958.09
2023-01-02T00:01:52.459Z,95055.91
2023-01-02T00:02:49.196Z,95069.53
2023-01-02T00:03:46.051Z,95051.00
2023-01-02T00:04:42.972Z,95044.91
2023-01-02T00:05:39.726Z,95057.06
2023-01-02T00:06:37.678Z,95058.94
2023-01-02T00:07:34.294Z,95056.97
2023-01-02T00:08:31.022Z,95071.31
2023-01-02T00:09:27.616Z,95056.28
2023-01-02T00:10:24.419Z,95050.50
2023-01-02T00:11:21.091Z,95051.03
2023-01-02T00:12:17.698Z,95015.16
2023-01-02T00:13:14.414Z,95052.88
2023-01-02T00:14:11.113Z,95042.53
2023-01-02T00:15:08.105Z,95050.09
2023-01-02T00:16:05.238Z,95051.94
2023-01-02T00:17:01.907Z,95059.56
2023-01-02T00:17:58.430Z,95046.19
2023-01-02T00:18:55.044Z,95047.41
2023-01-02T00:19:51.742Z,95051.94
2023-01-02T00:20:48.309Z,95054.50
2023-01-02T00:21:44.921Z,95050.81
2023-01-02T00:22:41.485Z,95045.13
2023-01-02T00:23:38.256Z,95048.31
2023-01-02T00:24:34.821Z,95054.47
2023-01-02T00:25:34.787Z,95056.53
2023-01-02T00:26:31.410Z,95053.41
2023-01-02T00:27:28.029Z,95043.09
2023-01-02T00:28:24.818Z,95047.34
2023-01-02T00:29:21.407Z,95051.78
2023-01-02T00:30:18.262Z,95053.31
2023-01-02T00:31:14.839Z,95053.25
2023-01-02T00:32:11.538Z,95050.59
2023-01-02T00:33:08.143Z,95051.63
2023-01-02T00:34:04.788Z,95050.41
2023-01-02T00:35:01.347Z,95028.13
2023-01-02T00:35:57.938Z,95042.91
2023-01-02T00:36:54.562Z,95042.84
2023-01-02T00:37:52.521Z,95044.00
2023-01-02T00:38:49.240Z,95046.66
2023-01-02T00:39:45.812Z,95046.88
2023-01-02T00:40:42.500Z,95048.53
2023-01-02T00:41:39.169Z,95027.34
2023-01-02T00:42:35.774Z,95044.78
2023-01-02T00:43:32.587Z,95048.38
2023-01-02T00:44:29.143Z,94952.81
2023-01-02T00:45:25.948Z,95047.75
2023-01-02T00:46:23.389Z,95018.31
2023-01-02T00:47:20.061Z,95048.69
2023-01-02T00:48:16.619Z,95043.16
2023-01-02T00:49:13.177Z,95043.44
2023-01-02T00:50:09.717Z,95041.84
2023-01-02T00:51:06.534Z,95044.53
2023-01-02T00:52:03.333Z,95044.53
2023-01-02T00:52:59.901Z,95041.31
2023-01-02T00:53:56.512Z,95001.09
2023-01-02T00:54:53.061Z,95043.38
2023-01-02T00:55:49.640Z,95046.00
2023-01-02T00:56:46.199Z,95006.06
2023-01-02T00:57:42.774Z,95021.09
2023-01-02T00:58:39.382Z,95048.38
2023-01-02T00:59:35.929Z,95036.22
2023-01-02T01:00:32.880Z,95014.56
2023-01-02T01:01:29.655Z,95024.06
2023-01-02T01:02:26.467Z,94938.63
2023-01-02T01:03:23.153Z,95045.84
2023-01-02T01:04:19.764Z,95037.06
2023-01-02T01:05:16.336Z,95032.88
2023-01-02T01:06:14.545Z,95044.13
2023-01-02T01:07:11.264Z,95041.25
2023-01-02T01:08:08.177Z,95037.06
2023-01-02T01:09:04.731Z,95013.44
2023-01-02T01:10:01.525Z,95034.28
2023-01-02T01:10:58.104Z,95027.94
2023-01-02T01:11:55.253Z,95031.16
2023-01-02T01:12:52.247Z,95038.31
2023-01-02T01:13:48.867Z,95035.13
2023-01-02T01:14:45.475Z,95043.78
2023-01-02T01:15:42.128Z,95035.63
2023-01-02T01:16:38.910Z,95030.03
2023-01-02T01:17:35.613Z,95036.63
2023-01-02T01:18:32.174Z,95030.00
2023-01-02T01:19:36.180Z,95031.13
2023-01-02T01:20:32.825Z,95002.72
2023-01-02T01:21:29.463Z,95029.03
2023-01-02T01:22:26.093Z,95035.09
2023-01-02T01:23:23.323Z,94878.28
2023-01-02T01:24:19.950Z,95035.34
2023-01-02T01:25:16.785Z,95033.53
2023-01-02T01:26:13.774Z,95033.28
2023-01-02T01:27:10.438Z,95032.53
2023-01-02T01:28:07.052Z,95019.81
2023-01-02T01:29:03.676Z,95031.09
2023-01-02T01:30:00.322Z,95031.38
2023-01-02T01:31:27.431Z,95030.50
2023-01-02T01:32:24.078Z,95027.06
2023-01-02T01:33:20.698Z,95024.19
2023-01-02T01:34:17.545Z,95029.47
2023-01-02T01:35:14.198Z,95023.19
2023-01-02T01:36:23.862Z,95019.19
2023-01-02T01:37:20.390Z,95036.59
2023-01-02T01:38:16.985Z,95023.97
2023-01-02T01:39:13.641Z,95024.81
2023-01-02T01:40:10.536Z,95024.00
2023-01-02T01:41:08.487Z,95021.91
2023-01-02T01:42:05.380Z,95025.84
2023-01-02T01:43:01.943Z,95024.22
2023-01-02T01:44:00.516Z,94904.56
2023-01-02T01:44:57.140Z,95001.34
2023-01-02T01:45:53.800Z,95022.38
2023-01-02T01:46:50.406Z,95011.25
2023-01-02T01:47:51.569Z,95020.81
2023-01-02T01:48:53.390Z,95013.50
2023-01-02T01:49:58.555Z,95017.31
2023-01-02T01:50:58.139Z,95013.88
2023-01-02T01:52:00.990Z,95016.56
2023-01-02T01:53:03.761Z,95012.66
2023-01-02T01:54:07.197Z,95006.84
2023-01-02T01:55:12.813Z,95008.47
2023-01-02T01:56:12.206Z,95011.16
2023-01-02T01:57:33.557Z,95015.00
2023-01-02T01:58:41.885Z,95011.09
2023-01-02T01:59:40.216Z,95011.06
2023-01-02T02:00:37.437Z,94987.09
2023-01-02T02:01:34.274Z,95013.16
2023-01-02T02:02:33.422Z,95010.47
2023-01-02T02:03:32.227Z,95015.03
2023-01-02T02:04:28.887Z,95021.41
2023-01-02T02:05:29.383Z,95021.34
2023-01-02T02:06:25.972Z,95023.56
2023-01-02T02:07:23.285Z,95014.63
2023-01-02T02:08:37.595Z,95023.91
2023-01-02T02:09:49.914Z,95021.25
2023-01-02T02:10:47.527Z,95019.25
2023-01-02T02:11:44.884Z,95020.75
2023-01-02T02:12:41.563Z,95023.88
2023-01-02T02:13:38.430Z,95020.50
2023-01-02T02:14:34.982Z,95030.06
2023-01-02T02:15:43.731Z,95012.38
2023-01-02T02:16:46.462Z,95014.25
2023-01-02T02:17:56.387Z,94983.16
2023-01-02T02:19:11.190Z,95009.94
2023-01-02T02:20:33.789Z,95011.50
2023-01-02T02:21:54.453Z,95012.25
2023-01-02T02:23:18.004Z,95008.50
2023-01-02T02:24:40.669Z,95009.97
2023-01-02T02:26:13.670Z,95012.91
2023-01-02T02:27:28.589Z,95015.91
2023-01-02T02:28:43.412Z,95014.75
2023-01-02T02:29:50.180Z,95011.13
2023-01-02T02:30:59.707Z,95015.09
2023-01-02T02:32:15.208Z,95012.41
2023-01-02T02:33:30.247Z,95010.03
2023-01-02T02:34:45.711Z,94969.44
2023-01-02T02:36:19.460Z,95014.06
2023-01-02T02:37:25.518Z,95007.31
2023-01-02T02:39:00.967Z,95006.63
2023-01-02T02:40:26.211Z,94998.22
2023-01-02T02:41:36.106Z,95006.91
2023-01-02T02:42:48.158Z,95006.59
2023-01-02T02:44:32.459Z,95001.78
2023-01-02T02:45:54.992Z,95007.13
2023-01-02T02:47:09.766Z,95002.38
2023-01-02T02:48:28.110Z,95004.03
2023-01-02T02:49:27.424Z,94998.53
2023-01-02T02:50:42.853Z,94995.09
2023-01-02T02:51:56.741Z,95000.38
2023-01-02T02:53:09.129Z,94990.66
2023-01-02T02:54:12.756Z,94991.44
2023-01-02T02:55:17.044Z,94927.50
2023-01-02T02:56:16.944Z,94975.38
2023-01-02T02:57:15.352Z,94990.66
2023-01-02T02:58:14.650Z,94991.19
2023-01-02T02:59:11.857Z,94989.59
2023-01-02T03:00:14.378Z,94987.72
2023-01-02T03:01:15.886Z,94986.94
2023-01-02T03:02:17.091Z,94990.88
2023-01-02T03:03:19.701Z,94996.69
2023-01-02T03:04:21.516Z,94989.28
2023-01-02T03:05:48.799Z,94997.09
2023-01-02T03:07:02.746Z,94993.16
2023-01-02T03:08:10.952Z,94990.00
2023-01-02T03:09:51.969Z,94988.53
2023-01-02T03:11:01.516Z,94989.81
2023-01-02T03:12:06.905Z,94964.59
2023-01-02T03:13:41.048Z,94928.56
2023-01-02T03:15:05.872Z,94966.97
2023-01-02T03:16:30.291Z,94996.47
2023-01-02T03:17:26.908Z,94994.09
2023-01-02T03:18:29.347Z,94990.44
2023-01-02T03:19:41.906Z,94993.59
2023-01-02T03:20:47.299Z,94996.22
2023-01-02T03:21:58.161Z,94998.88
2023-01-02T03:23:04.716Z,95001.22
2023-01-02T03:24:08.777Z,94997.53
2023-01-02T03:25:10.400Z,94983.59
2023-01-02T03:26:07.508Z,94968.31
2023-01-02T03:27:09.863Z,95002.03
2023-01-02T03:28:09.983Z,95004.66
2023-01-02T03:29:41.352Z,94996.75
2023-01-02T03:30:41.165Z,94955.16
2023-01-02T03:31:40.757Z,94999.91
2023-01-02T03:32:43.743Z,94996.75
2023-01-02T03:33:44.923Z,95007.81
2023-01-02T03:34:45.779Z,94998.31
2023-01-02T03:36:04.634Z,95001.22
2023-01-02T03:37:08.373Z,94968.31
2023-01-02T03:38:10.163Z,94988.06
2023-01-02T03:39:18.713Z,94995.72
2023-01-02T03:40:20.625Z,94997.00
2023-01-02T03:41:38.013Z,94995.69
2023-01-02T03:42:40.595Z,95000.97
2023-01-02T03:43:40.994Z,95010.97
2023-01-02T03:44:56.061Z,95006.22
2023-01-02T03:46:04.688Z,94987.00
2023-01-02T03:47:41.638Z,94986.47
2023-01-02T03:48:41.142Z,95007.31
2023-01-02T03:49:44.899Z,94993.31
2023-01-02T03:50:50.036Z,95000.44
2023-01-02T03:51:46.932Z,94999.91
2023-01-02T03:52:43.693Z,95009.91
2023-01-02T03:53:41.193Z,95010.97
2023-01-02T03:54:38.555Z,94974.88
2023-01-02T03:55:40.223Z,95004.88
2023-01-02T03:56:55.345Z,94998.28
2023-01-02T03:58:20.736Z,95010.28
2023-01-02T03:59:43.134Z,94998.63
2023-01-02T04:01:05.106Z,95002.31
2023-01-02T04:02:24.904Z,95008.84
2023-01-02T04:03:26.199Z,95006.63
2023-01-02T04:04:37.147Z,94981.97
2023-01-02T04:05:45.832Z,95007.03
2023-01-02T04:06:48.281Z,95009.13
2023-01-02T04:07:51.763Z,95013.88
2023-01-02T04:08:56.167Z,94966.72
2023-01-02T04:09:53.384Z,95012.53
2023-01-02T04:10:58.237Z,95008.81
2023-01-02T04:12:00.329Z,95014.09
2023-01-02T04:13:02.609Z,95016.75
2023-01-02T04:14:03.182Z,95024.66
2023-01-02T04:15:05.111Z,94954.59
2023-01-02T04:16:04.401Z,94981.44
2023-01-02T04:17:04.950Z,95027.28
2023-01-02T04:18:08.566Z,95022.03
2023-01-02T04:19:12.483Z,95019.16
2023-01-02T04:20:14.613Z,95028.09
2023-01-02T04:21:17.538Z,95034.69
2023-01-02T04:22:32.004Z,95036.00
2023-01-02T04:23:42.779Z,95004.13
2023-01-02T04:24:44.820Z,95009.34
2023-01-02T04:25:47.822Z,95018.31
2023-01-02T04:27:08.124Z,95032.06
2023-01-02T04:28:25.633Z,95033.38
2023-01-02T04:29:22.407Z,95030.47
2023-01-02T04:30:19.273Z,95035.47
2023-01-02T04:31:15.973Z,95028.63
2023-01-02T04:32:20.336Z,95026.25
2023-01-02T04:33:19.837Z,95007.81
2023-01-02T04:34:18.521Z,95029.69
2023-01-02T04:35:19.671Z,95028.38
2023-01-02T04:36:16.768Z,95029.41
2023-01-02T04:37:28.527Z,95034.69
2023-01-02T04:38:25.084Z,95029.94
2023-01-02T04:39:24.256Z,95015.19
2023-01-02T04:40:23.644Z,95030.75
2023-01-02T04:41:29.201Z,95029.97
2023-01-02T04:42:25.992Z,95028.88
2023-01-02T04:43:22.663Z,95031.78
2023-01-02T04:44:19.375Z,95033.63
2023-01-02T04:45:16.391Z,95032.81
2023-01-02T04:46:13.096Z,95033.09
2023-01-02T04:47:09.775Z,95032.03
2023-01-02T04:48:06.480Z,95032.56
2023-01-02T04:49:03.246Z,95038.59
2023-01-02T04:49:59.813Z,95029.63
2023-01-02T04:50:56.548Z,95032.53
2023-01-02T04:51:53.176Z,95034.09
2023-01-02T04:52:49.786Z,95037.28
2023-01-02T04:53:50.866Z,95035.44
2023-01-02T04:54:47.527Z,95032.56
2023-01-02T04:55:44.055Z,95037.56
2023-01-02T04:56:40.640Z,95042.31
2023-01-02T04:57:38.242Z,95041.00
2023-01-02T04:58:34.891Z,95007.03
2023-01-02T04:59:31.582Z,95040.50
2023-01-02T05:00:28.229Z,95046.81
2023-01-02T05:01:24.902Z,95049.19
2023-01-02T05:02:21.744Z,95024.41
2023-01-02T05:03:18.499Z,95035.22
2023-01-02T05:04:15.186Z,95034.66
2023-01-02T05:05:11.851Z,95035.19
2023-01-02T05:06:09.310Z,95034.16
2023-01-02T05:07:06.852Z,95029.94
2023-01-02T05:08:03.587Z,95025.97
2023-01-02T05:09:00.239Z,95028.91
2023-01-02T05:09:56.805Z,95038.09
2023-01-02T05:10:53.455Z,95024.66
2023-01-02T05:11:50.217Z,95028.63
2023-01-02T05:12:46.882Z,95044.69
2023-01-02T05:13:44.262Z,95037.81
2023-01-02T05:14:40.873Z,95035.16
2023-01-02T05:15:37.519Z,95036.50
2023-01-02T05:16:34.308Z,95035.47
2023-01-02T05:17:35.584Z,95034.69
2023-01-02T05:18:32.474Z,95038.66
2023-01-02T05:19:29.061Z,95033.63
2023-01-02T05:20:25.749Z,95029.41
2023-01-02T05:21:40.915Z,95030.72
2023-01-02T05:23:00.001Z,95033.34
2023-01-02T05:23:58.468Z,95035.22
2023-01-02T05:24:55.194Z,95030.75
2023-01-02T05:25:51.787Z,95036.28
2023-01-02T05:26:48.484Z,95026.78
2023-01-02T05:27:45.860Z,95038.09
2023-01-02T05:28:42.563Z,94992.78
2023-01-02T05:29:39.143Z,95026.50
2023-01-02T05:30:38.466Z,95030.22
2023-01-02T05:31:35.113Z,95021.78
2023-01-02T05:32:31.787Z,95031.50
2023-01-02T05:33:28.478Z,95028.38
2023-01-02T05:34:25.166Z,95025.75
2023-01-02T05:35:25.642Z,95023.09
2023-01-02T05:36:26.648Z,95033.38
2023-01-02T05:37:23.529Z,95029.41
2023-01-02T05:38:20.116Z,95031.78
2023-01-02T05:39:16.909Z,95024.69
2023-01-02T05:40:13.543Z,95031.78
2023-01-02T05:41:10.157Z,95032.59
2023-01-02T05:42:06.776Z,95034.69
2023-01-02T05:43:03.382Z,95037.06
2023-01-02T05:43:59.952Z,95034.44
2023-01-02T05:44:56.839Z,95040.75
2023-01-02T05:45:53.509Z,95035.47
2023-01-02T05:46:50.142Z,95039.94
2023-01-02T05:47:46.748Z,95040.50
2023-01-02T05:48:44.281Z,95036.25
2023-01-02T05:49:40.983Z,95032.06
2023-01-02T05:50:37.646Z,95032.56
2023-01-02T05:51:34.677Z,95033.63
2023-01-02T05:52:31.281Z,95036.00
2023-01-02T05:53:28.040Z,95039.94
2023-01-02T05:54:24.720Z,95028.34
2023-01-02T05:55:21.342Z,95037.34
2023-01-02T05:56:18.818Z,95036.22
2023-01-02T05:57:16.033Z,95036.78
2023-01-02T05:58:12.604Z,95012.03
2023-01-02T05:59:09.280Z,95040.19
2023-01-02T06:00:06.321Z,95046.25
2023-01-02T06:01:11.731Z,95039.16
2023-01-02T06:02:08.497Z,95030.97
2023-01-02T06:03:05.314Z,95034.69
2023-01-02T06:04:02.426Z,95044.69
2023-01-02T06:04:59.113Z,95038.88
2023-01-02T06:05:55.763Z,95027.84
2023-01-02T06:06:52.329Z,95038.13
2023-01-02T06:07:48.899Z,95042.84
2023-01-02T06:08:45.476Z,95041.50
2023-01-02T06:09:42.301Z,95017.56
2023-01-02T06:10:38.925Z,95041.25
2023-01-02T06:11:36.587Z,95043.13
2023-01-02T06:12:33.231Z,95028.09
2023-01-02T06:13:30.594Z,95047.88
2023-01-02T06:14:27.535Z,95037.59
2023-01-02T06:15:24.777Z,95018.88
2023-01-02T06:16:22.455Z,95050.47
2023-01-02T06:17:19.138Z,95045.75
2023-01-02T06:18:15.736Z,95041.03
2023-01-02T06:19:12.317Z,95045.75
2023-01-02T06:20:09.584Z,95044.94
2023-01-02T06:21:12.228Z,95041.03
2023-01-02T06:22:08.849Z,95054.72
2023-01-02T06:23:05.436Z,95049.16
2023-01-02T06:24:02.132Z,95050.22
2023-01-02T06:24:58.683Z,95050.75
2023-01-02T06:25:55.769Z,95058.41
2023-01-02T06:26:52.409Z,95060.50
2023-01-02T06:27:49.012Z,95058.13
2023-01-02T06:28:49.012Z,95058.13
2023-01-02T06:29:45.547Z,95055.97
2023-01-02T06:30:42.153Z,95058.63
2023-01-02T06:31:39.979Z,95063.88
2023-01-02T06:32:37.196Z,95060.16
2023-01-02T06:33:33.888Z,95003.28
2023-01-02T06:34:30.476Z,95054.38
2023-01-02T06:35:27.172Z,95055.16
2023-01-02T06:36:24.255Z,95054.09
2023-01-02T06:37:20.976Z,95057.78
2023-01-02T06:38:17.599Z,95057.25
2023-01-02T06:39:14.226Z,95055.09
2023-01-02T06:40:13.981Z,95061.66
2023-01-02T06:41:10.677Z,95063.97
2023-01-02T06:42:07.197Z,95066.38
2023-01-02T06:43:03.811Z,95062.91
2023-01-02T06:44:00.402Z,95068.41
2023-01-02T06:44:56.995Z,95064.22
2023-01-02T06:45:53.853Z,95060.50
2023-01-02T06:46:50.526Z,95066.06
2023-01-02T06:47:47.125Z,95060.00
2023-01-02T06:48:44.192Z,95060.75
2023-01-02T06:49:40.811Z,95066.50
2023-01-02T06:50:37.414Z,95069.94
2023-01-02T06:51:34.001Z,95063.31
2023-01-02T06:52:30.568Z,95063.78
2023-01-02T06:53:27.321Z,95070.63
2023-01-02T06:54:23.933Z,95061.69
2023-01-02T06:55:20.639Z,95069.31
2023-01-02T06:56:18.584Z,95064.31
2023-01-02T06:57:15.243Z,95066.75
2023-01-02T06:58:17.580Z,95066.75
2023-01-02T06:59:15.918Z,95065.47
2023-01-02T07:00:13.176Z,95072.59
2023-01-02T07:01:13.780Z,95072.00
2023-01-02T07:02:13.908Z,95067.81
2023-01-02T07:03:10.617Z,95071.47
2023-01-02T07:04:07.219Z,95066.47
2023-01-02T07:05:04.330Z,95072.28
2023-01-02T07:06:06.776Z,95042.25
2023-01-02T07:07:04.267Z,95067.66
2023-01-02T07:08:00.962Z,95067.06
2023-01-02T07:08:57.526Z,95058.69
2023-01-02T07:09:54.090Z,95073.72
2023-01-02T07:10:53.041Z,95070.00
2023-01-02T07:11:50.018Z,95073.06
2023-01-02T07:12:46.626Z,95077.19
2023-01-02T07:13:44.316Z,95083.25
2023-01-02T07:14:40.952Z,95009.59
2023-01-02T07:15:37.680Z,95039.59
2023-01-02T07:16:34.349Z,95079.94
2023-01-02T07:17:32.440Z,95079.63
2023-01-02T07:18:29.048Z,95064.50
2023-01-02T07:19:25.681Z,95072.31
2023-01-02T07:20:22.291Z,95081.38
2023-01-02T07:21:18.909Z,95076.63
2023-01-02T07:22:15.449Z,95072.94
2023-01-02T07:23:12.097Z,95068.91
2023-01-02T07:24:17.759Z,95058.09
2023-01-02T07:25:14.356Z,95073.56
2023-01-02T07:26:11.671Z,95064.34
2023-01-02T07:27:08.300Z,95064.06
2023-01-02T07:28:05.021Z,94994.91
2023-01-02T07:29:01.710Z,95069.28
2023-01-02T07:29:58.434Z,95071.38
2023-01-02T07:30:59.700Z,95062.34
2023-01-02T07:31:56.389Z,95064.72
2023-01-02T07:32:53.609Z,95069.16
2023-01-02T07:33:50.333Z,95062.47
2023-01-02T07:34:46.974Z,95061.41
2023-01-02T07:35:44.237Z,95058.31
2023-01-02T07:36:40.833Z,95059.78
2023-01-02T07:37:37.597Z,95066.84
2023-01-02T07:38:35.187Z,95064.50
2023-01-02T07:39:31.741Z,95068.53
2023-01-02T07:40:32.085Z,95069.09
2023-01-02T07:41:29.135Z,95055.09
2023-01-02T07:42:25.728Z,95071.06
2023-01-02T07:43:22.424Z,95031.09
2023-01-02T07:44:19.067Z,95065.47
2023-01-02T07:45:15.780Z,95059.09
2023-01-02T07:46:14.289Z,95061.59
2023-01-02T07:47:10.952Z,95059.47
2023-01-02T07:48:07.502Z,95066.72
2023-01-02T07:49:04.092Z,95062.50
2023-01-02T07:50:00.702Z,95061.88
2023-01-02T07:51:05.189Z,95065.81
2023-01-02T07:52:01.800Z,95065.03
2023-01-02T07:52:58.431Z,95071.28
2023-01-02T07:53:55.613Z,95070.72
2023-01-02T07:54:52.206Z,95072.31
2023-01-02T07:55:54.375Z,95042.63
2023-01-02T07:56:52.138Z,95069.47
2023-01-02T07:57:48.736Z,94995.75
2023-01-02T07:58:45.341Z,95065.25
2023-01-02T07:59:44.947Z,95060.22
2023-01-02T08:00:41.528Z,95065.19
2023-01-02T08:01:38.249Z,95071.66
2023-01-02T08:02:34.968Z,95061.06
2023-01-02T08:03:31.963Z,95068.03
2023-01-02T08:04:28.701Z,95069.56
2023-01-02T08:05:25.577Z,95060.16
2023-01-02T08:06:22.277Z,95071.72
2023-01-02T08:07:19.035Z,95072.97
2023-01-02T08:08:15.627Z,95066.16
2023-01-02T08:09:12.187Z,95066.66
2023-01-02T08:10:08.914Z,95061.22
2023-01-02T08:11:11.678Z,95069.84
2023-01-02T08:12:08.240Z,95068.00
2023-01-02T08:13:08.084Z,95060.88
2023-01-02T08:14:05.192Z,95069.13
2023-01-02T08:15:02.029Z,95061.06
2023-01-02T08:16:20.332Z,95071.19
2023-01-02T08:17:16.985Z,95073.75
2023-01-02T08:18:13.601Z,95070.81
2023-01-02T08:19:10.254Z,95068.22
2023-01-02T08:20:08.526Z,95075.00
2023-01-02T08:21:06.219Z,95076.44
2023-01-02T08:22:02.803Z,95075.50
2023-01-02T08:22:59.351Z,95065.75
2023-01-02T08:23:55.981Z,95043.88
2023-01-02T08:24:52.615Z,95078.00
2023-01-02T08:25:54.080Z,95073.97
2023-01-02T08:26:53.961Z,95080.22
2023-01-02T08:27:50.563Z,95079.16
2023-01-02T08:28:47.211Z,95074.72
2023-01-02T08:29:43.957Z,95070.81
2023-01-02T08:30:41.266Z,95081.59
2023-01-02T08:31:43.471Z,95081.19
2023-01-02T08:32:40.864Z,95075.22
2023-01-02T08:33:37.653Z,95079.94
2023-01-02T08:34:35.119Z,95081.03
2023-01-02T08:35:38.512Z,95082.75
2023-01-02T08:36:35.760Z,95079.97
2023-01-02T08:37:32.372Z,95050.97
2023-01-02T08:38:29.008Z,95078.41
2023-01-02T08:39:25.633Z,95076.53
2023-01-02T08:40:22.555Z,95073.44
2023-01-02T08:41:36.947Z,95070.44
2023-01-02T08:42:33.579Z,95079.72
2023-01-02T08:43:34.399Z,95071.44
2023-01-02T08:44:30.970Z,95076.06
2023-01-02T08:45:28.072Z,95035.25
2023-01-02T08:46:24.705Z,95072.41
2023-01-02T08:47:21.309Z,95068.66
2023-01-02T08:48:21.017Z,95078.72
2023-01-02T08:49:18.487Z,95043.84
2023-01-02T08:50:15.154Z,95067.44
2023-01-02T08:51:11.796Z,95064.78
2023-01-02T08:52:08.437Z,95039.78
2023-01-02T08:53:10.777Z,95068.78
2023-01-02T08:54:09.333Z,95057.91
2023-01-02T08:55:06.559Z,95065.16
2023-01-02T08:56:29.224Z,95059.75
2023-01-02T08:57:25.867Z,95030.78
2023-01-02T08:58:22.531Z,95047.38
2023-01-02T08:59:19.539Z,95047.56
2023-01-02T09:00:16.471Z,95054.81
2023-01-02T09:01:13.107Z,95053.81
2023-01-02T09:02:14.363Z,95046.59
2023-01-02T09:03:11.158Z,95053.81
2023-01-02T09:04:12.342Z,95035.69
2023-01-02T09:05:09.902Z,95049.66
2023-01-02T09:06:06.534Z,95051.44
2023-01-02T09:07:03.170Z,95038.22
2023-01-02T09:08:01.869Z,95042.84
2023-01-02T09:08:59.660Z,95038.94
2023-01-02T09:09:56.256Z,95042.41
2023-01-02T09:10:52.924Z,95040.53
2023-01-02T09:11:51.983Z,95045.22
2023-01-02T09:12:48.630Z,95045.88
2023-01-02T09:13:45.346Z,95040.63
2023-01-02T09:14:42.067Z,95036.88
2023-01-02T09:15:38.769Z,95037.59
2023-01-02T09:16:35.427Z,95037.97
2023-01-02T09:17:31.981Z,95042.75
2023-01-02T09:18:29.682Z,95029.09
2023-01-02T09:19:27.018Z,95043.13
2023-01-02T09:20:23.966Z,95044.63
2023-01-02T09:21:20.560Z,95040.13
2023-01-02T09:22:17.193Z,95036.50
2023-01-02T09:23:13.809Z,95035.72
2023-01-02T09:24:10.852Z,95030.88
2023-01-02T09:25:08.003Z,95026.50
2023-01-02T09:26:10.947Z,95032.88
2023-01-02T09:27:07.539Z,95021.47
2023-01-02T09:28:04.311Z,95019.78
2023-01-02T09:29:01.117Z,95023.34
2023-01-02T09:29:57.759Z,95018.19
2023-01-02T09:30:55.043Z,94945.25
2023-01-02T09:31:51.716Z,94918.09
2023-01-02T09:32:50.734Z,94996.28
2023-01-02T09:33:48.274Z,95020.28
2023-01-02T09:34:50.301Z,95018.03
2023-01-02T09:35:46.878Z,95007.50
2023-01-02T09:36:43.531Z,95010.34
2023-01-02T09:37:40.161Z,95010.16
2023-01-02T09:38:37.052Z,95008.34
2023-01-02T09:39:33.621Z,95005.66
2023-01-02T09:40:32.018Z,94982.13
2023-01-02T09:41:51.740Z,95006.25
2023-01-02T09:42:51.770Z,95004.56
2023-01-02T09:44:04.615Z,95002.81
2023-01-02T09:45:08.569Z,95010.16
2023-01-02T09:46:13.592Z,94998.38
2023-01-02T09:47:25.903Z,95000.28
2023-01-02T09:48:22.601Z,94994.81
2023-01-02T09:49:26.239Z,94996.13
2023-01-02T09:50:28.004Z,94992.34
2023-01-02T09:51:24.634Z,94995.75
2023-01-02T09:52:38.296Z,94988.00
2023-01-02T09:53:35.396Z,94990.38
2023-01-02T09:54:33.791Z,94985.03
2023-01-02T09:55:43.415Z,94984.94
2023-01-02T09:56:42.417Z,94986.75
2023-01-02T09:58:06.100Z,94971.44
2023-01-02T09:59:10.719Z,94985.22
2023-01-02T10:00:17.101Z,94980.22
2023-01-02T10:01:24.804Z,94979.56
2023-01-02T10:02:40.252Z,94974.81
2023-01-02T10:04:14.149Z,94976.25
2023-01-02T10:05:28.976Z,94979.41
2023-01-02T10:06:35.740Z,94937.19
2023-01-02T10:07:47.884Z,94972.41
2023-01-02T10:08:50.473Z,94974.81
2023-01-02T10:09:59.896Z,94973.97
2023-01-02T10:11:08.605Z,94973.44
2023-01-02T10:12:25.305Z,94973.03
2023-01-02T10:14:08.360Z,94980.94
2023-01-02T10:14:59.567Z,94969.63
2023-01-02T10:16:00.592Z,94963.97
2023-01-02T10:17:00.461Z,94941.06
2023-01-02T10:18:15.278Z,94970.97
2023-01-02T10:19:20.145Z,94969.69
2023-01-02T10:20:45.688Z,94963.63
2023-01-02T10:21:45.379Z,94970.63
2023-01-02T10:22:51.448Z,94969.13
2023-01-02T10:24:14.219Z,94961.53
2023-01-02T10:25:26.821Z,94964.34
2023-01-02T10:26:28.281Z,94944.88
2023-01-02T10:27:32.921Z,94962.97
2023-01-02T10:28:49.352Z,94959.13
2023-01-02T10:29:54.429Z,94956.81
2023-01-02T10:31:05.408Z,94956.84
2023-01-02T10:32:15.308Z,94947.16
2023-01-02T10:33:32.389Z,94960.66
2023-01-02T10:34:45.314Z,94953.66
2023-01-02T10:35:45.790Z,94948.50
2023-01-02T10:36:44.108Z,94948.50
2023-01-02T10:37:40.747Z,94948.63
2023-01-02T10:38:39.448Z,94941.50
2023-01-02T10:39:36.098Z,94943.03
2023-01-02T10:40:33.837Z,94939.44
2023-01-02T10:41:31.613Z,94944.91
2023-01-02T10:42:31.225Z,94939.22
2023-01-02T10:43:29.398Z,94933.44
2023-01-02T10:44:29.975Z,94927.66
2023-01-02T10:45:26.724Z,94929.00
2023-01-02T10:46:23.453Z,94923.38
2023-01-02T10:47:37.849Z,94925.44
2023-01-02T10:48:37.396Z,94926.66
2023-01-02T10:49:37.803Z,94917.03
2023-01-02T10:50:42.021Z,94927.66
2023-01-02T10:51:45.678Z,94931.69
2023-01-02T10:53:04.765Z,94916.22
2023-01-02T10:54:09.576Z,94924.34
2023-01-02T10:55:06.557Z,94924.72
2023-01-02T10:56:05.673Z,94916.53
2023-01-02T10:57:02.300Z,94921.72
2023-01-02T10:58:05.252Z,94919.06
2023-01-02T10:59:02.907Z,94919.69
2023-01-02T11:00:01.325Z,94888.81
2023-01-02T11:01:05.945Z,94911.22
2023-01-02T11:02:02.686Z,94905.34
2023-01-02T11:03:12.358Z,94911.81
2023-01-02T11:04:13.132Z,94903.84
2023-01-02T11:05:20.200Z,94902.03
2023-01-02T11:06:28.226Z,94903.91
2023-01-02T11:07:27.096Z,94903.47
2023-01-02T11:08:34.339Z,94912.78
2023-01-02T11:09:35.980Z,94904.75
2023-01-02T11:10:35.092Z,94890.97
2023-01-02T11:11:32.631Z,94897.41
2023-01-02T11:12:29.245Z,94897.25
2023-01-02T11:13:25.817Z,94895.69
2023-01-02T11:14:34.100Z,94891.88
2023-01-02T11:15:34.703Z,94897.94
2023-01-02T11:16:33.189Z,94890.06
2023-01-02T11:17:30.718Z,94892.81
2023-01-02T11:18:31.160Z,94893.41
2023-01-02T11:19:30.026Z,94897.50
2023-01-02T11:20:33.784Z,94898.94
2023-01-02T11:21:33.149Z,94891.28
2023-01-02T11:22:36.259Z,94890.97
2023-01-02T11:23:39.804Z,94879.97
2023-01-02T11:25:05.630Z,94882.47
2023-01-02T11:26:04.467Z,94869.31
2023-01-02T11:27:02.788Z,94874.50
2023-01-02T11:28:00.905Z,94880.63
2023-01-02T11:29:07.142Z,94881.84
2023-01-02T11:30:09.657Z,94870.72
2023-01-02T11:31:10.081Z,94849.97
2023-01-02T11:32:06.914Z,94861.81
2023-01-02T11:33:19.384Z,94856.16
2023-01-02T11:34:22.499Z,94869.59
2023-01-02T11:35:36.450Z,94856.88
2023-01-02T11:36:33.334Z,94866.19
2023-01-02T11:37:29.974Z,94855.63
2023-01-02T11:38:39.843Z,94858.31
2023-01-02T11:39:36.631Z,94863.63
2023-01-02T11:40:33.692Z,94866.47
2023-01-02T11:42:08.159Z,94870.09
2023-01-02T11:43:29.334Z,94861.63
2023-01-02T11:44:31.662Z,94857.28
2023-01-02T11:45:30.788Z,94820.22
2023-01-02T11:46:29.577Z,94861.41
2023-01-02T11:47:32.868Z,94855.97
2023-01-02T11:48:29.777Z,94851.19
2023-01-02T11:49:31.908Z,94810.53
2023-01-02T11:50:31.726Z,94854.41
2023-01-02T11:51:29.974Z,94858.59
2023-01-02T11:52:34.849Z,94854.31
2023-01-02T11:53:40.647Z,94851.69
2023-01-02T11:54:44.230Z,94845.31
2023-01-02T11:55:43.827Z,94854.00
2023-01-02T11:56:44.203Z,94850.47
2023-01-02T11:57:49.982Z,94848.31